Terminal Aerodrome Forecast
Issued by NWS

Current Version | Previous Version | Text Only | Print | Product List | Glossary Off
Versions: 1 2 3 4 5 6 7 8 9 10 11 12 13 14 15 16 17 18 19 20 21 22 23 24 25 26 27 28 29 30 31 32 33 34

838
FTUS41 KRNK 150520
TAFLWB
TAF
KLWB 150520Z 1506/1606 00000KT P6SM SCT080
     FM151000 VRB03KT P6SM BKN080
     FM151800 16004KT P6SM SCT050
     FM160000 00000KT P6SM BKN090=

USA.gov is the U.S. government's official web portal to all federal, state and local government web resources and services.